Time;durP1;ratioP1;P1;durP2;ratioP2;P2;SDS_P1;SDS_P2;PMS_P1;PMS_P2;Temp;Humidity;BMP_temperature;BMP_pressure;BME280_temperature;BME280_humidity;BME280_pressure;Samples;Min_cycle;Max_cycle;Signal;HPM_P1;HPM_P2
2023/03/28 00:00:20;;;;;;;3.72;1.02;;;;;;;15.83;100.00;100684.63;2084039;28;20032;-72
2023/03/28 00:01:42;;;;;;;4.97;1.65;;;;;;;15.82;100.00;100692.63;2086016;28;20128;-71
2023/03/28 00:03:03;;;;;;;2.00;0.68;;;;;;;15.79;100.00;100676.69;2089486;28;20056;-71
2023/03/28 00:04:28;;;;;;;0.05;0.05;;;;;;;15.77;100.00;100676.69;2072519;28;20422;-71
2023/03/28 00:05:50;;;;;;;4.03;0.73;;;;;;;15.77;100.00;100673.16;2085784;28;20398;-71
2023/03/28 00:07:13;;;;;;;8.32;1.60;;;;;;;15.75;100.00;100672.31;2079304;28;20414;-72
2023/03/28 00:08:38;;;;;;;1.02;0.70;;;;;;;15.72;100.00;100665.22;2077482;28;20041;-72
2023/03/28 00:10:03;;;;;;;0.40;0.30;;;;;;;15.72;100.00;100667.88;2093269;28;20056;-71
2023/03/28 00:11:25;;;;;;;2.45;1.90;;;;;;;15.73;100.00;100676.75;2082014;28;20144;-71
2023/03/28 00:12:46;;;;;;;5.95;1.58;;;;;;;15.73;100.00;100682.94;2069726;28;20046;-72
2023/03/28 00:14:09;;;;;;;16.00;0.85;;;;;;;15.72;100.00;100680.28;2075720;28;20096;-72
2023/03/28 00:15:30;;;;;;;4.53;0.95;;;;;;;15.70;100.00;100688.28;2077265;28;20135;-72
2023/03/28 00:16:52;;;;;;;10.27;1.05;;;;;;;15.67;100.00;100682.09;2072440;28;20042;-71
2023/03/28 00:18:14;;;;;;;15.63;2.08;;;;;;;15.65;100.00;100683.88;2072210;28;20181;-71
2023/03/28 00:19:39;;;;;;;3.25;1.00;;;;;;;15.64;100.00;100693.66;2061725;28;20493;-71
2023/03/28 00:21:00;;;;;;;0.30;0.30;;;;;;;15.65;100.00;100691.88;2062276;28;20058;-71
2023/03/28 00:22:23;;;;;;;0.25;0.22;;;;;;;15.63;100.00;100696.31;2067344;28;20038;-71
2023/03/28 00:23:44;;;;;;;1.60;0.77;;;;;;;15.62;100.00;100699.88;2083845;28;20049;-71
2023/03/28 00:25:10;;;;;;;1.55;0.80;;;;;;;15.63;100.00;100694.53;2078099;28;20037;-73
2023/03/28 00:26:34;;;;;;;1.70;0.88;;;;;;;15.65;100.00;100697.19;2077443;28;20060;-73
2023/03/28 00:27:56;;;;;;;0.80;0.38;;;;;;;15.63;100.00;100689.22;2075828;28;20045;-72
2023/03/28 00:29:19;;;;;;;3.13;1.13;;;;;;;15.63;100.00;100691.88;2078309;28;20045;-72
2023/03/28 00:30:42;;;;;;;0.80;0.60;;;;;;;15.63;100.00;100699.84;2070245;28;20123;-72
2023/03/28 00:32:03;;;;;;;7.68;1.65;;;;;;;15.63;100.00;100698.97;2080473;28;20041;-73
2023/03/28 00:33:27;;;;;;;1.35;0.85;;;;;;;15.61;100.00;100699.00;2074976;28;20044;-72
2023/03/28 00:34:50;;;;;;;5.78;0.90;;;;;;;15.61;100.00;100701.66;2088150;28;20079;-72
2023/03/28 00:36:13;;;;;;;1.83;0.93;;;;;;;15.58;100.00;100704.31;2074696;28;20488;-72
2023/03/28 00:37:34;;;;;;;2.13;1.08;;;;;;;15.56;100.00;100697.25;2059343;28;20137;-72
2023/03/28 00:38:57;;;;;;;1.73;1.23;;;;;;;15.53;100.00;100698.16;2061687;28;20093;-72
2023/03/28 00:40:20;;;;;;;0.80;0.45;;;;;;;15.50;100.00;100695.47;2067652;28;20092;-72
2023/03/28 00:41:44;;;;;;;1.55;0.95;;;;;;;15.47;100.00;100695.50;2077776;28;20681;-72
2023/03/28 00:43:07;;;;;;;1.63;0.82;;;;;;;15.44;100.00;100693.72;2078555;28;20068;-72
2023/03/28 00:44:47;;;;;;;9.07;0.90;;;;;;;15.43;100.00;100699.03;2072094;28;20049;-72
2023/03/28 00:46:16;;;;;;;6.65;1.20;;;;;;;15.38;100.00;100693.75;2071968;28;20053;-72
2023/03/28 00:47:42;;;;;;;2.60;0.93;;;;;;;15.36;100.00;100697.34;2070594;28;20053;-71
2023/03/28 00:49:11;;;;;;;2.45;0.70;;;;;;;15.33;100.00;100703.53;2074451;28;20053;-72
2023/03/28 00:50:37;;;;;;;1.77;0.45;;;;;;;15.30;100.00;100692.03;2084969;28;20091;-72
2023/03/28 00:52:02;;;;;;;11.70;0.85;;;;;;;15.28;100.00;100696.47;2078857;28;20087;-71
2023/03/28 00:53:26;;;;;;;1.98;0.98;;;;;;;15.24;100.00;100689.41;2078336;28;20132;-72
2023/03/28 00:54:48;;;;;;;4.45;1.02;;;;;;;15.22;100.00;100683.22;2074106;28;20092;-72
2023/03/28 00:56:19;;;;;;;3.28;0.38;;;;;;;15.20;100.00;100690.31;2070150;28;20084;-72
2023/03/28 00:57:43;;;;;;;1.45;0.82;;;;;;;15.16;100.00;100678.81;2077405;28;20105;-72
2023/03/28 00:59:09;;;;;;;3.10;1.15;;;;;;;15.13;100.00;100684.13;2075456;28;20555;-72
2023/03/28 01:00:33;;;;;;;14.80;0.65;;;;;;;15.10;100.00;100677.03;2084727;28;20102;-72
2023/03/28 01:01:56;;;;;;;2.72;0.65;;;;;;;15.08;100.00;100676.19;2078282;28;20417;-73
2023/03/28 01:03:20;;;;;;;5.45;0.75;;;;;;;15.08;100.00;100693.91;2075329;28;20049;-72
2023/03/28 01:04:48;;;;;;;3.78;0.82;;;;;;;15.08;100.00;100705.44;2072489;28;20140;-72
2023/03/28 01:06:15;;;;;;;4.35;1.38;;;;;;;15.01;100.00;100706.34;2077305;28;20800;-72
2023/03/28 01:07:44;;;;;;;6.35;2.25;;;;;;;14.86;100.00;100692.19;2070741;28;20049;-73
2023/03/28 01:09:10;;;;;;;1.42;0.75;;;;;;;14.79;100.00;100699.31;2077760;28;20049;-72
2023/03/28 01:10:32;;;;;;;1.83;0.88;;;;;;;14.80;100.00;100698.44;2069503;28;20107;-73
2023/03/28 01:11:59;;;;;;;1.05;0.50;;;;;;;14.83;100.00;100678.94;2073282;28;20059;-72
2023/03/28 01:13:25;;;;;;;8.02;0.75;;;;;;;14.86;100.00;100682.47;2076110;28;20505;-72
2023/03/28 01:14:48;;;;;;;2.00;1.08;;;;;;;14.87;100.00;100692.22;2069057;28;20109;-73
2023/03/28 01:16:12;;;;;;;3.53;1.23;;;;;;;14.89;100.00;100690.44;2066562;28;20030;-72
2023/03/28 01:17:35;;;;;;;1.95;1.05;;;;;;;14.90;100.00;100694.84;2085997;28;20133;-72
2023/03/28 01:19:00;;;;;;;10.48;1.75;;;;;;;14.91;100.00;100690.41;2072342;28;20453;-73
2023/03/28 01:20:34;;;;;;;2.65;0.75;;;;;;;14.89;100.00;100677.16;2065794;28;20054;-73
2023/03/28 01:22:28;;;;;;;2.13;0.90;;;;;;;14.89;100.00;100690.44;2076859;28;20116;-73
2023/03/28 01:24:22;;;;;;;3.80;1.00;;;;;;;14.87;100.00;100670.06;2060043;28;20046;-73
2023/03/28 01:26:14;;;;;;;4.32;1.15;;;;;;;14.84;100.00;100670.06;2070925;28;20538;-72
2023/03/28 01:27:45;;;;;;;3.05;0.47;;;;;;;14.81;100.00;100670.06;2069557;28;20069;-73
2023/03/28 01:29:44;;;;;;;0.88;0.68;;;;;;;14.78;100.00;100668.31;2079288;28;20070;-72
2023/03/28 01:31:44;;;;;;;1.45;0.70;;;;;;;14.78;100.00;100657.69;2072120;28;20053;-73
2023/03/28 01:33:50;;;;;;;0.75;0.50;;;;;;;14.77;100.00;100643.50;2072238;28;20049;-73
2023/03/28 01:35:46;;;;;;;0.30;0.20;;;;;;;14.71;100.00;100639.97;2067580;28;20038;-73
2023/03/28 01:37:21;;;;;;;7.00;0.90;;;;;;;14.67;100.00;100649.75;2070821;28;20168;-73
2023/03/28 01:38:50;;;;;;;2.63;0.70;;;;;;;14.68;100.00;100646.22;2084455;28;20059;-73
2023/03/28 01:40:27;;;;;;;0.90;0.63;;;;;;;14.70;100.00;100649.72;2083526;28;20040;-73
2023/03/28 01:42:05;;;;;;;1.88;0.70;;;;;;;14.72;100.00;100645.28;2071910;28;20050;-72
2023/03/28 01:43:33;;;;;;;5.60;1.25;;;;;;;14.71;100.00;100642.63;2069423;28;20733;-73
2023/03/28 01:45:07;;;;;;;1.15;0.70;;;;;;;14.70;100.00;100636.44;2070031;28;20356;-72
2023/03/28 01:46:36;;;;;;;1.65;0.70;;;;;;;14.71;100.00;100634.66;2078113;28;20087;-72
2023/03/28 01:48:06;;;;;;;4.63;1.08;;;;;;;14.73;100.00;100630.25;2070119;28;20046;-72
2023/03/28 01:49:36;;;;;;;1.80;0.88;;;;;;;14.72;100.00;100632.00;2069917;28;20490;-72
2023/03/28 01:51:08;;;;;;;10.43;1.65;;;;;;;14.70;100.00;100636.44;2059383;28;20041;-72
2023/03/28 01:52:40;;;;;;;1.08;0.85;;;;;;;14.69;100.00;100626.72;2076229;28;20057;-72
2023/03/28 01:54:10;;;;;;;1.63;0.70;;;;;;;14.68;100.00;100616.97;2070699;28;20127;-72
2023/03/28 01:55:39;;;;;;;3.38;0.70;;;;;;;14.68;100.00;100630.25;2075897;28;20418;-72
2023/03/28 01:57:09;;;;;;;2.10;0.82;;;;;;;14.66;100.00;100642.66;2070182;28;20092;-72
2023/03/28 01:58:42;;;;;;;2.78;1.27;;;;;;;14.64;100.00;100636.47;2068734;28;20329;-72
2023/03/28 02:00:18;;;;;;;5.85;0.75;;;;;;;14.61;100.00;100638.25;2079855;28;20076;-72
2023/03/28 02:02:04;;;;;;;4.57;0.88;;;;;;;14.58;100.00;100635.59;2087496;28;20045;-73
2023/03/28 02:03:30;;;;;;;0.68;0.47;;;;;;;14.57;100.00;100629.41;2073144;28;20045;-72
2023/03/28 02:05:03;;;;;;;1.42;0.35;;;;;;;14.54;100.00;100637.38;2070939;28;20046;-73
2023/03/28 02:06:28;;;;;;;4.32;0.90;;;;;;;14.52;100.00;100638.25;2069996;28;20077;-73
2023/03/28 02:07:56;;;;;;;2.33;0.63;;;;;;;14.50;100.00;100640.94;2077263;28;20080;-72
2023/03/28 02:09:39;;;;;;;1.15;0.28;;;;;;;14.48;100.00;100642.72;2078845;28;20049;-72
2023/03/28 02:11:33;;;;;;;6.82;0.50;;;;;;;14.50;100.00;100645.38;2077558;28;20058;-73
2023/03/28 02:13:18;;;;;;;0.82;0.57;;;;;;;14.52;100.00;100648.91;2085552;28;20052;-73
2023/03/28 02:14:49;;;;;;;7.90;0.77;;;;;;;14.54;100.00;100641.81;2067013;28;20049;-73
2023/03/28 02:16:40;;;;;;;3.80;0.95;;;;;;;14.52;100.00;100639.16;2064596;28;20042;-73
2023/03/28 02:18:24;;;;;;;6.85;0.70;;;;;;;14.53;100.00;100634.72;2071230;28;20038;-73
2023/03/28 02:19:57;;;;;;;4.55;1.42;;;;;;;14.55;100.00;100640.94;2070536;28;20149;-73
2023/03/28 02:21:50;;;;;;;0.43;0.20;;;;;;;14.57;100.00;100636.50;2063858;28;20133;-72
2023/03/28 02:23:37;;;;;;;1.08;0.45;;;;;;;14.56;100.00;100634.72;2080150;28;20045;-73
2023/03/28 02:25:20;;;;;;;2.08;0.93;;;;;;;14.54;100.00;100637.38;2077844;28;20149;-72
2023/03/28 02:26:44;;;;;;;3.22;1.05;;;;;;;14.54;100.00;100633.84;2076585;28;20045;-72
2023/03/28 02:28:11;;;;;;;1.08;0.75;;;;;;;14.53;100.00;100632.97;2071995;28;20141;-73
2023/03/28 02:30:08;;;;;;;2.42;0.80;;;;;;;14.49;100.00;100631.22;2063206;28;20699;-73
2023/03/28 02:31:33;;;;;;;2.25;0.82;;;;;;;14.48;100.00;100631.22;2081622;28;20417;-73
2023/03/28 02:33:00;;;;;;;1.85;0.65;;;;;;;14.46;100.00;100640.94;2072231;28;20042;-73
2023/03/28 02:34:22;;;;;;;3.17;0.90;;;;;;;14.42;100.00;100636.53;2067255;28;20042;-73
2023/03/28 02:35:54;;;;;;;3.10;1.08;;;;;;;14.40;100.00;100630.34;2074778;28;20497;-72
2023/03/28 02:37:30;;;;;;;2.85;1.50;;;;;;;14.34;100.00;100640.06;2062094;28;20070;-73
2023/03/28 02:39:11;;;;;;;1.50;0.80;;;;;;;14.31;100.00;100640.03;2078548;28;20046;-73
2023/03/28 02:40:51;;;;;;;3.03;1.20;;;;;;;14.29;100.00;100643.59;2067356;28;20038;-73
2023/03/28 02:42:37;;;;;;;8.40;1.02;;;;;;;14.28;100.00;100636.53;2065718;28;20065;-73
2023/03/28 02:44:13;;;;;;;6.75;0.93;;;;;;;14.25;100.00;100641.81;2073092;28;20038;-73
2023/03/28 02:45:55;;;;;;;5.32;1.40;;;;;;;14.18;100.00;100638.28;2069852;28;20058;-72
2023/03/28 02:47:22;;;;;;;3.90;1.17;;;;;;;14.17;100.00;100639.22;2071608;28;20042;-73
2023/03/28 02:48:54;;;;;;;3.92;1.02;;;;;;;14.17;100.00;100625.03;2084174;28;20401;-73
2023/03/28 02:50:26;;;;;;;0.60;0.45;;;;;;;14.15;100.00;100634.78;2069904;28;20080;-73
2023/03/28 02:51:55;;;;;;;1.70;0.95;;;;;;;14.11;100.00;100633.88;2068422;28;20476;-73
2023/03/28 02:53:27;;;;;;;6.05;0.73;;;;;;;14.07;100.00;100631.22;2069279;28;20093;-73
2023/03/28 02:54:57;;;;;;;1.85;0.77;;;;;;;14.17;100.00;100640.97;2069998;28;20045;-73
2023/03/28 02:56:38;;;;;;;2.15;1.17;;;;;;;14.30;100.00;100640.06;2070176;28;20056;-72
2023/03/28 02:58:10;;;;;;;3.65;1.27;;;;;;;14.40;100.00;100630.34;2069314;28;20059;-72
2023/03/28 02:59:38;;;;;;;8.38;2.05;;;;;;;14.44;100.00;100627.66;2067853;28;20046;-72
2023/03/28 03:01:02;;;;;;;0.73;0.60;;;;;;;14.49;100.00;100633.88;2061134;28;20552;-72
2023/03/28 03:02:23;;;;;;;0.93;0.38;;;;;;;14.49;100.00;100636.53;2080883;28;20045;-73
2023/03/28 03:03:47;;;;;;;6.72;1.38;;;;;;;14.52;100.00;100641.81;2083805;28;20736;-73
2023/03/28 03:05:09;;;;;;;1.73;0.90;;;;;;;14.54;100.00;100649.78;2079410;28;20046;-73
2023/03/28 03:06:33;;;;;;;1.58;0.63;;;;;;;14.54;100.00;100641.81;2066077;28;20045;-73
2023/03/28 03:07:56;;;;;;;2.63;0.90;;;;;;;14.54;100.00;100641.81;2063323;28;20046;-73
2023/03/28 03:09:18;;;;;;;3.17;0.77;;;;;;;14.54;100.00;100649.78;2071596;28;20049;-73
2023/03/28 03:10:42;;;;;;;6.07;0.43;;;;;;;14.51;100.00;100650.66;2082136;28;20144;-74
2023/03/28 03:12:04;;;;;;;1.33;0.88;;;;;;;14.51;100.00;100645.34;2063490;28;20112;-73
2023/03/28 03:13:26;;;;;;;6.53;0.77;;;;;;;14.50;100.00;100646.25;2062520;28;20052;-73
2023/03/28 03:14:49;;;;;;;2.78;0.80;;;;;;;14.49;100.00;100648.91;2066443;28;20053;-72
2023/03/28 03:16:44;;;;;;;1.33;0.47;;;;;;;14.47;100.00;100653.34;2070386;28;20065;-72
2023/03/28 03:18:07;;;;;;;3.10;1.40;;;;;;;14.48;100.00;100657.75;2068917;28;20050;-73
2023/03/28 03:19:29;;;;;;;2.45;1.05;;;;;;;14.48;100.00;100653.34;2068919;28;20108;-73
2023/03/28 03:20:53;;;;;;;6.82;1.38;;;;;;;14.49;100.00;100660.44;2065950;28;20046;-72
2023/03/28 03:22:15;;;;;;;2.70;0.75;;;;;;;14.49;100.00;100656.88;2066668;28;20153;-73
2023/03/28 03:23:44;;;;;;;2.15;1.08;;;;;;;14.47;100.00;100667.50;2059414;28;20143;-72
2023/03/28 03:25:07;;;;;;;0.20;0.20;;;;;;;14.44;100.00;100666.66;2064755;28;20046;-73
2023/03/28 03:26:40;;;;;;;;;;;;;;;14.36;100.00;100667.50;2066318;28;20398;-73
2023/03/28 03:28:05;;;;;;;7.15;1.15;;;;;;;14.35;100.00;100676.34;2075433;28;19925;-73
2023/03/28 03:29:27;;;;;;;6.45;0.85;;;;;;;14.35;100.00;100672.81;2068944;28;20100;-72
2023/03/28 03:30:50;;;;;;;5.00;1.27;;;;;;;14.36;100.00;100670.16;2074291;28;20593;-73
2023/03/28 03:32:47;;;;;;;7.25;1.10;;;;;;;14.30;100.00;100677.25;2071595;28;20061;-73
2023/03/28 03:34:09;;;;;;;3.35;1.05;;;;;;;14.27;100.00;100678.13;2071912;28;20512;-73
2023/03/28 03:35:40;;;;;;;2.05;0.88;;;;;;;14.21;100.00;100672.81;2068035;28;20132;-72
2023/03/28 03:37:03;;;;;;;2.35;1.27;;;;;;;14.17;100.00;100680.81;2072044;28;20124;-73
2023/03/28 03:38:25;;;;;;;11.10;1.38;;;;;;;14.14;100.00;100688.75;2096470;28;20143;-73
2023/03/28 03:39:47;;;;;;;0.52;0.43;;;;;;;14.11;100.00;100694.94;2082371;28;20085;-73
2023/03/28 03:41:18;;;;;;;3.83;0.77;;;;;;;14.06;100.00;100694.06;2060061;28;20044;-73
2023/03/28 03:42:42;;;;;;;3.33;0.38;;;;;;;13.91;100.00;100704.69;2057038;28;20104;-73
2023/03/28 03:44:04;;;;;;;1.33;0.63;;;;;;;13.72;100.00;100713.50;2080013;28;20041;-73
2023/03/28 03:45:27;;;;;;;0.55;0.55;;;;;;;13.49;100.00;100710.78;2070422;28;20073;-73
2023/03/28 03:46:49;;;;;;;0.45;0.45;;;;;;;13.30;100.00;100720.44;2067864;28;20046;-73
2023/03/28 03:48:11;;;;;;;5.35;1.00;;;;;;;13.19;100.00;100719.53;2067178;28;20033;-75
2023/03/28 03:49:33;;;;;;;3.10;1.65;;;;;;;13.20;100.00;100717.72;2076322;28;20041;-71
2023/03/28 03:50:58;;;;;;;1.60;1.33;;;;;;;13.31;100.00;100716.03;2081142;28;20106;-72
2023/03/28 03:52:21;;;;;;;1.33;0.60;;;;;;;13.41;100.00;100717.81;2068311;28;20144;-72
2023/03/28 03:53:45;;;;;;;2.63;1.27;;;;;;;13.51;100.00;100723.16;2068114;28;20050;-72
2023/03/28 03:55:11;;;;;;;1.50;1.00;;;;;;;13.60;100.00;100722.28;2076984;28;20073;-72
2023/03/28 03:56:34;;;;;;;3.67;0.20;;;;;;;13.67;100.00;100721.41;2079769;28;20076;-71
2023/03/28 03:57:58;;;;;;;3.00;1.27;;;;;;;13.71;100.00;100717.03;2072967;28;20139;-71
2023/03/28 03:59:21;;;;;;;1.77;1.02;;;;;;;13.72;100.00;100719.66;2077876;28;20044;-72
2023/03/28 04:00:45;;;;;;;1.98;0.68;;;;;;;13.78;100.00;100721.47;2074350;28;20069;-71
2023/03/28 04:02:23;;;;;;;4.28;0.65;;;;;;;13.82;100.00;100731.19;2095883;28;20036;-71
2023/03/28 04:03:54;;;;;;;1.25;0.93;;;;;;;13.84;100.00;100724.13;2079327;28;20057;-71
2023/03/28 04:05:22;;;;;;;5.72;1.67;;;;;;;13.85;100.00;100724.09;2074978;28;20041;-71
2023/03/28 04:07:01;;;;;;;4.80;0.88;;;;;;;13.87;100.00;100726.78;2063736;28;20058;-71
2023/03/28 04:08:23;;;;;;;11.85;1.30;;;;;;;13.89;100.00;100730.31;2067658;28;20091;-71
2023/03/28 04:09:46;;;;;;;4.85;0.55;;;;;;;13.89;100.00;100728.56;2069859;28;20046;-71
2023/03/28 04:11:09;;;;;;;0.40;0.40;;;;;;;13.90;100.00;100730.31;2072123;28;20045;-71
2023/03/28 04:12:37;;;;;;;6.10;0.88;;;;;;;13.90;100.00;100727.69;2068992;28;20049;-72
2023/03/28 04:14:03;;;;;;;0.63;0.50;;;;;;;13.90;100.00;100725.03;2068450;28;20493;-71
2023/03/28 04:15:24;;;;;;;0.82;0.38;;;;;;;13.91;100.00;100732.06;2072605;28;20546;-71
2023/03/28 04:17:00;;;;;;;3.97;0.65;;;;;;;13.90;100.00;100730.31;2070833;28;20332;-71
2023/03/28 04:18:23;;;;;;;1.85;0.47;;;;;;;13.93;100.00;100732.97;2062233;28;20062;-72
2023/03/28 04:19:46;;;;;;;10.57;1.15;;;;;;;13.94;100.00;100729.44;2069710;28;20399;-72
2023/03/28 04:21:09;;;;;;;1.55;1.20;;;;;;;13.96;100.00;100729.44;2075026;28;20075;-72
2023/03/28 04:22:36;;;;;;;7.72;1.55;;;;;;;13.97;100.00;100739.19;2073239;28;20041;-72
2023/03/28 04:24:02;;;;;;;6.63;1.20;;;;;;;13.95;100.00;100732.97;2075970;28;20058;-72
2023/03/28 04:25:34;;;;;;;4.97;1.40;;;;;;;13.91;100.00;100731.22;2077917;28;20049;-73
2023/03/28 04:27:04;;;;;;;3.15;0.98;;;;;;;13.89;100.00;100727.66;2070996;28;20077;-72
2023/03/28 04:28:27;;;;;;;2.45;1.10;;;;;;;13.88;100.00;100731.19;2083804;28;20061;-72
2023/03/28 04:30:03;;;;;;;3.00;1.02;;;;;;;13.90;100.00;100734.75;2072508;28;20042;-73
2023/03/28 04:31:48;;;;;;;4.78;2.72;;;;;;;13.93;100.00;100734.72;2080908;28;20111;-72
2023/03/28 04:33:11;;;;;;;3.35;2.15;;;;;;;13.99;100.00;100734.75;2084209;28;20055;-72
2023/03/28 04:34:37;;;;;;;2.70;2.50;;;;;;;14.07;100.00;100740.06;2071429;28;20069;-71
2023/03/28 04:36:04;;;;;;;9.02;2.30;;;;;;;14.12;100.00;100741.84;2082550;28;20060;-71
2023/03/28 04:37:27;;;;;;;1.95;1.30;;;;;;;14.19;100.00;100748.91;2075266;28;20050;-71
2023/03/28 04:38:52;;;;;;;16.58;1.45;;;;;;;14.26;100.00;100749.81;2073572;28;20060;-71
2023/03/28 04:40:38;;;;;;;6.07;1.55;;;;;;;14.32;100.00;100750.69;2080580;28;20120;-71
2023/03/28 04:42:30;;;;;;;2.78;2.00;;;;;;;14.41;100.00;100746.31;2047595;29;20059;-72
2023/03/28 04:44:03;;;;;;;4.07;2.47;;;;;;;14.48;100.00;100748.06;2065451;28;20442;-72
2023/03/28 04:45:36;;;;;;;5.70;1.42;;;;;;;14.56;100.00;100755.16;2083182;28;20044;-71
2023/03/28 04:47:12;;;;;;;3.10;1.20;;;;;;;14.63;100.00;100753.38;2079682;28;20136;-72
2023/03/28 04:48:34;;;;;;;7.30;2.38;;;;;;;14.71;100.00;100748.94;2078208;28;20102;-72
2023/03/28 04:49:57;;;;;;;4.32;1.45;;;;;;;14.78;100.00;100750.69;2083595;28;20056;-71
2023/03/28 04:51:21;;;;;;;2.28;1.23;;;;;;;14.86;100.00;100751.56;2074033;28;20050;-70
2023/03/28 04:52:43;;;;;;;2.05;0.90;;;;;;;14.96;100.00;100750.69;2069807;28;20056;-72
2023/03/28 04:54:06;;;;;;;8.35;2.20;;;;;;;15.05;100.00;100750.63;2061832;28;20058;-72
2023/03/28 04:55:47;;;;;;;4.40;1.17;;;;;;;15.18;100.00;100754.13;2093850;28;20496;-71
2023/03/28 04:57:15;;;;;;;;;;;;;;;15.24;100.00;100754.09;2073429;28;20061;-71
2023/03/28 04:58:39;;;;;;;7.43;0.60;;;;;;;15.36;100.00;100758.53;2084008;28;20419;-71
2023/03/28 05:00:03;;;;;;;7.90;0.90;;;;;;;15.48;100.00;100755.81;2080714;28;20172;-72
2023/03/28 05:02:06;;;;;;;3.13;1.35;;;;;;;15.61;100.00;100746.91;2079722;28;20052;-72
2023/03/28 05:03:39;;;;;;;1.10;0.43;;;;;;;15.72;100.00;100755.69;2071723;28;20421;-71
2023/03/28 05:05:02;;;;;;;1.05;0.60;;;;;;;15.78;100.00;100757.44;2055811;28;20098;-71
2023/03/28 05:06:25;;;;;;;1.88;1.52;;;;;;;15.85;100.00;100754.75;2066680;28;20050;-72
2023/03/28 05:07:49;;;;;;;0.60;0.60;;;;;;;15.93;100.00;100750.25;2084548;28;20123;-71
2023/03/28 05:09:16;;;;;;;1.55;0.90;;;;;;;16.01;100.00;100746.66;2072080;28;20041;-71
2023/03/28 05:10:39;;;;;;;1.65;1.50;;;;;;;16.09;100.00;100739.47;2072672;28;20104;-71
2023/03/28 05:12:03;;;;;;;1.63;0.80;;;;;;;16.16;100.00;100741.19;2072845;28;20041;-71
2023/03/28 05:13:28;;;;;;;3.60;0.75;;;;;;;16.25;100.00;100738.47;2064136;28;20141;-72
2023/03/28 05:15:11;;;;;;;;;;;;;;;16.29;100.00;100737.53;2076354;28;20053;-72
2023/03/28 05:16:52;;;;;;;0.63;0.63;;;;;;;16.40;100.00;100733.03;2080292;28;19928;-72
2023/03/28 05:18:31;;;;;;;7.68;2.75;;;;;;;16.51;100.00;100733.81;2079284;28;20049;-71
2023/03/28 05:19:54;;;;;;;1.50;1.10;;;;;;;16.61;100.00;100726.63;2072048;28;20108;-72
2023/03/28 05:21:19;;;;;;;3.90;1.48;;;;;;;16.70;100.00;100731.88;2069931;28;20048;-72
2023/03/28 05:22:46;;;;;;;3.20;1.15;;;;;;;16.77;100.00;100724.72;2069173;28;20049;-72
2023/03/28 05:24:09;;;;;;;1.10;0.88;;;;;;;16.82;100.00;100728.19;2061659;28;20050;-72
2023/03/28 05:25:32;;;;;;;4.78;0.45;;;;;;;16.89;100.00;100729.91;2071360;28;20042;-71
2023/03/28 05:26:54;;;;;;;3.10;0.65;;;;;;;16.95;100.00;100730.72;2071989;28;20061;-71
2023/03/28 05:28:19;;;;;;;0.70;0.70;;;;;;;17.05;100.00;100734.19;2069880;28;20041;-72
2023/03/28 05:29:45;;;;;;;0.52;0.43;;;;;;;17.12;100.00;100731.44;2068455;28;20078;-72
2023/03/28 05:31:08;;;;;;;4.18;0.88;;;;;;;17.17;100.00;100727.81;2068520;28;20060;-72
2023/03/28 05:32:30;;;;;;;5.97;1.25;;;;;;;17.23;100.00;100725.97;2066009;28;20096;-72
2023/03/28 05:33:54;;;;;;;0.85;0.63;;;;;;;17.30;100.00;100730.31;2066766;28;20092;-72
2023/03/28 05:35:29;;;;;;;2.08;0.90;;;;;;;17.39;100.00;100724.00;2079067;28;20291;-73
2023/03/28 05:36:51;;;;;;;1.75;0.80;;;;;;;17.47;100.00;100725.63;2069332;28;20442;-72
2023/03/28 05:38:20;;;;;;;1.23;0.43;;;;;;;17.56;100.00;100727.31;2075683;28;20048;-72
2023/03/28 05:39:48;;;;;;;10.55;2.38;;;;;;;17.66;100.00;100723.63;2069544;28;20116;-72
2023/03/28 05:41:11;;;;;;;4.75;0.90;;;;;;;17.75;100.00;100717.28;2074638;28;20103;-72
2023/03/28 05:42:33;;;;;;;0.82;0.52;;;;;;;17.82;100.00;100727.88;2068384;28;20149;-72
2023/03/28 05:43:59;;;;;;;0.38;0.20;;;;;;;17.87;100.00;100718.00;2076329;28;20106;-72
2023/03/28 05:45:37;;;;;;;1.45;1.00;;;;;;;17.96;100.00;100713.41;2068274;28;20140;-72
2023/03/28 05:47:07;;;;;;;3.85;0.82;;;;;;;18.05;100.00;100713.28;2068703;28;20057;-74
2023/03/28 05:48:29;;;;;;;0.65;0.60;;;;;;;18.13;100.00;100717.59;2067072;28;20603;-72
2023/03/28 05:49:53;;;;;;;2.20;0.22;;;;;;;18.20;100.00;100705.00;2067047;28;20092;-72
2023/03/28 05:51:17;;;;;;;0.43;0.30;;;;;;;18.25;100.00;100706.69;2066543;28;20084;-72
2023/03/28 05:52:38;;;;;;;1.95;0.60;;;;;;;18.30;100.00;100710.19;2075295;28;20091;-72
2023/03/28 05:54:02;;;;;;;7.93;0.98;;;;;;;18.38;100.00;100702.00;2068973;28;20438;-72
2023/03/28 05:55:25;;;;;;;2.50;0.90;;;;;;;18.44;100.00;100699.25;2070156;28;20054;-72
2023/03/28 05:56:48;;;;;;;4.65;0.32;;;;;;;18.53;100.00;100700.88;2076734;28;20072;-72
2023/03/28 05:58:11;;;;;;;1.55;0.70;;;;;;;18.60;100.00;100702.56;2071893;28;20046;-72
2023/03/28 05:59:34;;;;;;;0.85;0.85;;;;;;;18.70;100.00;100698.81;2083544;28;20072;-72
2023/03/28 06:00:57;;;;;;;2.88;0.85;;;;;;;18.77;100.00;100697.81;2071136;28;20426;-72
2023/03/28 06:02:22;;;;;;;1.05;0.32;;;;;;;18.86;100.00;100699.38;2082569;28;20457;-72
2023/03/28 06:03:46;;;;;;;3.28;0.73;;;;;;;18.93;100.00;100695.69;2065878;28;20057;-73
2023/03/28 06:05:10;;;;;;;0.10;0.05;;;;;;;18.98;100.00;100707.16;2070272;28;20034;-73
2023/03/28 06:06:33;;;;;;;16.70;1.75;;;;;;;19.03;100.00;100698.13;2071945;28;20069;-72
2023/03/28 06:07:56;;;;;;;0.70;0.50;;;;;;;19.15;100.00;100701.50;2065702;28;20034;-73
2023/03/28 06:09:19;;;;;;;1.23;1.02;;;;;;;19.26;100.00;100703.03;2063715;28;20060;-72
2023/03/28 06:10:48;;;;;;;3.95;1.58;;;;;;;19.36;100.00;100703.75;2076647;28;20057;-72
2023/03/28 06:12:25;;;;;;;4.85;1.02;;;;;;;19.44;100.00;100709.78;2070005;28;20066;-72
2023/03/28 06:13:48;;;;;;;1.08;0.77;;;;;;;19.51;100.00;100727.53;2082483;28;20061;-73
2023/03/28 06:15:12;;;;;;;2.55;1.20;;;;;;;19.63;100.00;100727.25;2065362;28;20049;-72
2023/03/28 06:16:39;;;;;;;0.82;0.55;;;;;;;19.67;100.00;100742.34;2066872;28;20477;-71
2023/03/28 06:18:02;;;;;;;3.55;1.40;;;;;;;19.74;100.00;100751.13;2066874;28;20080;-72
2023/03/28 06:19:25;;;;;;;1.38;0.50;;;;;;;19.83;100.00;100761.63;2071690;28;20042;-72
2023/03/28 06:20:51;;;;;;;4.45;1.10;;;;;;;19.98;100.00;100766.66;2067566;28;20057;-72
2023/03/28 06:22:14;;;;;;;1.05;0.90;;;;;;;20.16;100.00;100776.94;2074898;28;20175;-72
2023/03/28 06:23:41;;;;;;;1.60;0.63;;;;;;;20.36;100.00;100775.63;2068777;28;20053;-73
2023/03/28 06:25:12;;;;;;;;;;;;;;;20.45;100.00;100773.59;2073430;28;20053;-73
2023/03/28 06:26:36;;;;;;;3.00;1.38;;;;;;;20.56;100.00;100770.63;2072019;28;20356;-72
2023/03/28 06:27:59;;;;;;;4.53;2.00;;;;;;;20.66;100.00;100767.69;2068111;28;20132;-72
2023/03/28 06:29:22;;;;;;;0.65;0.50;;;;;;;20.75;100.00;100771.03;2073459;28;20483;-72
2023/03/28 06:30:54;;;;;;;4.68;0.75;;;;;;;20.82;100.00;100773.53;2076732;28;20064;-73
2023/03/28 06:32:17;;;;;;;1.92;0.82;;;;;;;20.95;100.00;100769.59;2068214;28;20046;-73
2023/03/28 06:33:41;;;;;;;2.28;1.05;;;;;;;21.06;100.00;100761.28;2082744;28;20072;-73
2023/03/28 06:35:06;;;;;;;1.63;0.60;;;;;;;21.13;100.00;100770.03;2069571;28;20569;-72
2023/03/28 06:36:28;;;;;;;0.98;0.60;;;;;;;21.19;100.00;100767.22;2065452;28;20068;-73
2023/03/28 06:37:51;;;;;;;1.33;0.63;;;;;;;21.26;100.00;100774.19;2065599;28;20058;-72
2023/03/28 06:39:20;;;;;;;11.85;1.40;;;;;;;21.28;100.00;100766.94;2083663;28;20049;-73
2023/03/28 06:40:43;;;;;;;0.25;0.25;;;;;;;21.33;100.00;100768.56;2079891;28;20553;-72
2023/03/28 06:42:05;;;;;;;0.95;0.70;;;;;;;21.38;100.00;100773.84;2082558;28;20048;-72
2023/03/28 06:43:38;;;;;;;0.75;0.38;;;;;;;21.50;100.00;100757.34;2069220;28;20552;-72
2023/03/28 06:45:07;;;;;;;1.35;0.50;;;;;;;21.67;100.00;100764.91;2067603;28;20133;-72
2023/03/28 06:46:34;;;;;;;1.95;0.25;;;;;;;21.71;100.00;100766.59;2076292;28;20617;-72